sensor_id;sensor_type;location;lat;lon;timestamp;P1;durP1;ratioP1;P2;durP2;ratioP2
18899;SDS011;9582;52.018;6.306;2023-03-01T00:00:13;9.00;;;7.13;;
18899;SDS011;9582;52.018;6.306;2023-03-01T00:02:40;13.00;;;7.10;;
18899;SDS011;9582;52.018;6.306;2023-03-01T00:05:07;10.57;;;7.30;;
18899;SDS011;9582;52.018;6.306;2023-03-01T00:07:35;8.70;;;6.90;;
18899;SDS011;9582;52.018;6.306;2023-03-01T00:10:01;9.03;;;7.17;;
18899;SDS011;9582;52.018;6.306;2023-03-01T00:12:28;8.97;;;7.60;;
18899;SDS011;9582;52.018;6.306;2023-03-01T00:14:55;9.40;;;7.37;;
18899;SDS011;9582;52.018;6.306;2023-03-01T00:17:21;11.13;;;6.93;;
18899;SDS011;9582;52.018;6.306;2023-03-01T00:19:48;8.80;;;7.17;;
18899;SDS011;9582;52.018;6.306;2023-03-01T00:22:14;8.53;;;6.60;;
18899;SDS011;9582;52.018;6.306;2023-03-01T00:24:42;8.97;;;7.27;;
18899;SDS011;9582;52.018;6.306;2023-03-01T00:27:08;8.53;;;7.10;;
18899;SDS011;9582;52.018;6.306;2023-03-01T00:29:35;9.97;;;7.60;;
18899;SDS011;9582;52.018;6.306;2023-03-01T00:32:02;9.17;;;6.93;;
18899;SDS011;9582;52.018;6.306;2023-03-01T00:34:28;9.97;;;7.27;;
18899;SDS011;9582;52.018;6.306;2023-03-01T00:36:55;9.77;;;6.80;;
18899;SDS011;9582;52.018;6.306;2023-03-01T00:39:30;9.83;;;6.67;;
18899;SDS011;9582;52.018;6.306;2023-03-01T00:41:58;8.50;;;7.00;;
18899;SDS011;9582;52.018;6.306;2023-03-01T00:44:25;8.23;;;6.67;;
18899;SDS011;9582;52.018;6.306;2023-03-01T00:46:51;9.50;;;6.57;;
18899;SDS011;9582;52.018;6.306;2023-03-01T00:49:18;10.00;;;7.40;;
18899;SDS011;9582;52.018;6.306;2023-03-01T00:51:44;10.50;;;6.83;;
18899;SDS011;9582;52.018;6.306;2023-03-01T00:54:11;9.77;;;6.73;;
18899;SDS011;9582;52.018;6.306;2023-03-01T00:56:37;9.10;;;6.30;;
18899;SDS011;9582;52.018;6.306;2023-03-01T00:59:05;10.07;;;7.07;;
18899;SDS011;9582;52.018;6.306;2023-03-01T01:01:31;10.80;;;7.47;;
18899;SDS011;9582;52.018;6.306;2023-03-01T01:03:59;9.93;;;6.70;;
18899;SDS011;9582;52.018;6.306;2023-03-01T01:06:27;9.90;;;6.60;;
18899;SDS011;9582;52.018;6.306;2023-03-01T01:08:55;8.50;;;6.93;;
18899;SDS011;9582;52.018;6.306;2023-03-01T01:11:23;7.33;;;5.87;;
18899;SDS011;9582;52.018;6.306;2023-03-01T01:13:51;8.97;;;6.03;;
18899;SDS011;9582;52.018;6.306;2023-03-01T01:16:21;8.60;;;6.60;;
18899;SDS011;9582;52.018;6.306;2023-03-01T01:18:49;11.23;;;7.07;;
18899;SDS011;9582;52.018;6.306;2023-03-01T01:21:16;10.53;;;6.83;;
18899;SDS011;9582;52.018;6.306;2023-03-01T01:23:45;10.23;;;6.83;;
18899;SDS011;9582;52.018;6.306;2023-03-01T01:26:12;9.10;;;6.10;;
18899;SDS011;9582;52.018;6.306;2023-03-01T01:28:41;10.37;;;6.90;;
18899;SDS011;9582;52.018;6.306;2023-03-01T01:31:07;9.20;;;6.50;;
18899;SDS011;9582;52.018;6.306;2023-03-01T01:33:35;8.20;;;5.50;;
18899;SDS011;9582;52.018;6.306;2023-03-01T01:36:03;7.37;;;5.30;;
18899;SDS011;9582;52.018;6.306;2023-03-01T01:38:30;10.47;;;6.10;;
18899;SDS011;9582;52.018;6.306;2023-03-01T01:40:57;7.03;;;5.47;;
18899;SDS011;9582;52.018;6.306;2023-03-01T01:43:24;8.37;;;5.97;;
18899;SDS011;9582;52.018;6.306;2023-03-01T01:45:54;8.87;;;6.57;;
18899;SDS011;9582;52.018;6.306;2023-03-01T01:48:22;10.07;;;7.00;;
18899;SDS011;9582;52.018;6.306;2023-03-01T01:50:55;9.67;;;6.77;;
18899;SDS011;9582;52.018;6.306;2023-03-01T01:53:25;8.77;;;7.20;;
18899;SDS011;9582;52.018;6.306;2023-03-01T01:55:53;10.30;;;6.83;;
18899;SDS011;9582;52.018;6.306;2023-03-01T01:58:23;9.03;;;7.07;;
18899;SDS011;9582;52.018;6.306;2023-03-01T02:00:50;10.07;;;7.30;;
18899;SDS011;9582;52.018;6.306;2023-03-01T02:03:19;8.77;;;6.83;;
18899;SDS011;9582;52.018;6.306;2023-03-01T02:05:50;11.40;;;6.50;;
18899;SDS011;9582;52.018;6.306;2023-03-01T02:08:24;10.20;;;7.30;;
18899;SDS011;9582;52.018;6.306;2023-03-01T02:10:53;11.03;;;6.97;;
18899;SDS011;9582;52.018;6.306;2023-03-01T02:13:22;9.23;;;7.63;;
18899;SDS011;9582;52.018;6.306;2023-03-01T02:15:49;8.93;;;7.47;;
18899;SDS011;9582;52.018;6.306;2023-03-01T02:18:16;9.83;;;7.30;;
18899;SDS011;9582;52.018;6.306;2023-03-01T02:20:50;10.73;;;6.87;;
18899;SDS011;9582;52.018;6.306;2023-03-01T02:23:27;8.47;;;7.33;;
18899;SDS011;9582;52.018;6.306;2023-03-01T02:25:56;11.93;;;7.83;;
18899;SDS011;9582;52.018;6.306;2023-03-01T02:28:30;11.67;;;7.50;;
18899;SDS011;9582;52.018;6.306;2023-03-01T02:30:57;9.97;;;7.20;;
18899;SDS011;9582;52.018;6.306;2023-03-01T02:33:41;11.27;;;7.60;;
18899;SDS011;9582;52.018;6.306;2023-03-01T02:36:10;12.40;;;8.27;;
18899;SDS011;9582;52.018;6.306;2023-03-01T02:38:40;9.50;;;7.70;;
18899;SDS011;9582;52.018;6.306;2023-03-01T02:41:07;10.07;;;7.97;;
18899;SDS011;9582;52.018;6.306;2023-03-01T02:43:38;10.63;;;7.87;;
18899;SDS011;9582;52.018;6.306;2023-03-01T02:46:05;9.93;;;7.30;;
18899;SDS011;9582;52.018;6.306;2023-03-01T02:48:40;9.57;;;6.30;;
18899;SDS011;9582;52.018;6.306;2023-03-01T02:51:12;9.20;;;6.37;;
18899;SDS011;9582;52.018;6.306;2023-03-01T02:53:49;10.20;;;7.97;;
18899;SDS011;9582;52.018;6.306;2023-03-01T02:56:24;11.23;;;7.87;;
18899;SDS011;9582;52.018;6.306;2023-03-01T02:58:53;10.77;;;7.17;;
18899;SDS011;9582;52.018;6.306;2023-03-01T03:01:20;9.83;;;7.53;;
18899;SDS011;9582;52.018;6.306;2023-03-01T03:03:47;10.83;;;7.73;;
18899;SDS011;9582;52.018;6.306;2023-03-01T03:06:14;11.30;;;7.57;;
18899;SDS011;9582;52.018;6.306;2023-03-01T03:08:41;7.70;;;6.33;;
18899;SDS011;9582;52.018;6.306;2023-03-01T03:11:09;9.07;;;7.50;;
18899;SDS011;9582;52.018;6.306;2023-03-01T03:13:35;11.77;;;8.43;;
18899;SDS011;9582;52.018;6.306;2023-03-01T03:16:03;10.30;;;7.80;;
18899;SDS011;9582;52.018;6.306;2023-03-01T03:18:30;11.83;;;7.53;;
18899;SDS011;9582;52.018;6.306;2023-03-01T03:20:57;9.63;;;7.23;;
18899;SDS011;9582;52.018;6.306;2023-03-01T03:23:24;8.30;;;7.37;;
18899;SDS011;9582;52.018;6.306;2023-03-01T03:25:51;11.70;;;7.67;;
18899;SDS011;9582;52.018;6.306;2023-03-01T03:28:18;10.10;;;7.20;;
18899;SDS011;9582;52.018;6.306;2023-03-01T03:30:44;10.30;;;6.83;;
18899;SDS011;9582;52.018;6.306;2023-03-01T03:33:13;9.37;;;6.60;;
18899;SDS011;9582;52.018;6.306;2023-03-01T03:35:40;7.93;;;6.33;;
18899;SDS011;9582;52.018;6.306;2023-03-01T03:38:09;9.43;;;7.13;;
18899;SDS011;9582;52.018;6.306;2023-03-01T03:40:41;10.77;;;6.83;;
18899;SDS011;9582;52.018;6.306;2023-03-01T03:43:10;9.67;;;7.07;;
18899;SDS011;9582;52.018;6.306;2023-03-01T03:45:38;9.70;;;6.77;;
18899;SDS011;9582;52.018;6.306;2023-03-01T03:48:06;10.20;;;6.67;;
18899;SDS011;9582;52.018;6.306;2023-03-01T03:50:36;9.37;;;6.87;;
18899;SDS011;9582;52.018;6.306;2023-03-01T03:53:04;11.60;;;6.87;;
18899;SDS011;9582;52.018;6.306;2023-03-01T03:55:31;9.57;;;7.60;;
18899;SDS011;9582;52.018;6.306;2023-03-01T03:57:59;11.53;;;8.03;;
18899;SDS011;9582;52.018;6.306;2023-03-01T04:00:31;10.47;;;7.97;;
18899;SDS011;9582;52.018;6.306;2023-03-01T04:02:59;12.07;;;8.03;;
18899;SDS011;9582;52.018;6.306;2023-03-01T04:05:26;11.13;;;7.63;;
18899;SDS011;9582;52.018;6.306;2023-03-01T04:07:55;11.17;;;7.50;;
18899;SDS011;9582;52.018;6.306;2023-03-01T04:10:32;9.17;;;6.73;;
18899;SDS011;9582;52.018;6.306;2023-03-01T04:13:00;8.97;;;7.47;;
18899;SDS011;9582;52.018;6.306;2023-03-01T04:15:27;10.97;;;7.40;;
18899;SDS011;9582;52.018;6.306;2023-03-01T04:17:54;9.67;;;7.37;;
18899;SDS011;9582;52.018;6.306;2023-03-01T04:20:22;12.63;;;8.27;;
18899;SDS011;9582;52.018;6.306;2023-03-01T04:22:50;10.40;;;7.63;;
18899;SDS011;9582;52.018;6.306;2023-03-01T04:25:19;11.37;;;7.70;;
18899;SDS011;9582;52.018;6.306;2023-03-01T04:27:46;10.33;;;7.73;;
18899;SDS011;9582;52.018;6.306;2023-03-01T04:30:12;10.87;;;7.13;;
18899;SDS011;9582;52.018;6.306;2023-03-01T04:32:40;10.73;;;6.57;;
18899;SDS011;9582;52.018;6.306;2023-03-01T04:35:06;10.13;;;7.00;;
18899;SDS011;9582;52.018;6.306;2023-03-01T04:37:33;9.07;;;6.80;;
18899;SDS011;9582;52.018;6.306;2023-03-01T04:40:00;9.43;;;6.90;;
18899;SDS011;9582;52.018;6.306;2023-03-01T04:42:38;10.10;;;7.23;;
18899;SDS011;9582;52.018;6.306;2023-03-01T04:45:05;8.13;;;6.17;;
18899;SDS011;9582;52.018;6.306;2023-03-01T04:47:38;9.13;;;6.50;;
18899;SDS011;9582;52.018;6.306;2023-03-01T04:50:05;9.67;;;6.97;;
18899;SDS011;9582;52.018;6.306;2023-03-01T04:52:33;11.30;;;7.43;;
18899;SDS011;9582;52.018;6.306;2023-03-01T04:55:00;11.20;;;6.77;;
18899;SDS011;9582;52.018;6.306;2023-03-01T04:57:26;7.80;;;6.80;;
18899;SDS011;9582;52.018;6.306;2023-03-01T04:59:54;10.37;;;6.53;;
18899;SDS011;9582;52.018;6.306;2023-03-01T05:02:21;8.80;;;6.27;;
18899;SDS011;9582;52.018;6.306;2023-03-01T05:04:47;9.90;;;7.10;;
18899;SDS011;9582;52.018;6.306;2023-03-01T05:07:14;8.00;;;5.83;;
18899;SDS011;9582;52.018;6.306;2023-03-01T05:09:44;7.73;;;5.33;;
18899;SDS011;9582;52.018;6.306;2023-03-01T05:12:11;7.50;;;5.60;;
18899;SDS011;9582;52.018;6.306;2023-03-01T05:14:37;9.80;;;6.57;;
18899;SDS011;9582;52.018;6.306;2023-03-01T05:17:05;8.33;;;6.13;;
18899;SDS011;9582;52.018;6.306;2023-03-01T05:19:32;8.87;;;6.90;;
18899;SDS011;9582;52.018;6.306;2023-03-01T05:21:59;8.20;;;5.67;;
18899;SDS011;9582;52.018;6.306;2023-03-01T05:24:29;8.13;;;5.50;;
18899;SDS011;9582;52.018;6.306;2023-03-01T05:26:57;11.20;;;5.93;;
18899;SDS011;9582;52.018;6.306;2023-03-01T05:29:25;9.57;;;6.23;;
18899;SDS011;9582;52.018;6.306;2023-03-01T05:31:52;6.23;;;5.57;;
18899;SDS011;9582;52.018;6.306;2023-03-01T05:34:23;8.53;;;5.77;;
18899;SDS011;9582;52.018;6.306;2023-03-01T05:36:51;8.33;;;5.80;;
18899;SDS011;9582;52.018;6.306;2023-03-01T05:39:18;7.97;;;5.60;;
18899;SDS011;9582;52.018;6.306;2023-03-01T05:41:46;7.23;;;5.03;;
18899;SDS011;9582;52.018;6.306;2023-03-01T05:44:13;7.43;;;5.40;;
18899;SDS011;9582;52.018;6.306;2023-03-01T05:46:40;8.87;;;5.63;;
18899;SDS011;9582;52.018;6.306;2023-03-01T05:49:06;7.60;;;5.40;;
18899;SDS011;9582;52.018;6.306;2023-03-01T05:51:34;8.00;;;6.20;;
18899;SDS011;9582;52.018;6.306;2023-03-01T05:54:00;12.57;;;5.70;;
18899;SDS011;9582;52.018;6.306;2023-03-01T05:56:27;9.63;;;5.27;;
18899;SDS011;9582;52.018;6.306;2023-03-01T05:58:54;8.43;;;5.47;;
18899;SDS011;9582;52.018;6.306;2023-03-01T06:01:20;10.77;;;6.60;;
18899;SDS011;9582;52.018;6.306;2023-03-01T06:03:47;11.97;;;6.07;;
18899;SDS011;9582;52.018;6.306;2023-03-01T06:06:13;11.07;;;7.40;;
18899;SDS011;9582;52.018;6.306;2023-03-01T06:08:41;11.63;;;7.27;;
18899;SDS011;9582;52.018;6.306;2023-03-01T06:11:08;9.97;;;6.60;;
18899;SDS011;9582;52.018;6.306;2023-03-01T06:13:35;8.47;;;6.33;;
18899;SDS011;9582;52.018;6.306;2023-03-01T06:16:03;13.33;;;6.90;;
18899;SDS011;9582;52.018;6.306;2023-03-01T06:18:31;12.30;;;7.00;;
18899;SDS011;9582;52.018;6.306;2023-03-01T06:20:57;12.20;;;7.67;;
18899;SDS011;9582;52.018;6.306;2023-03-01T06:23:24;8.97;;;7.73;;
18899;SDS011;9582;52.018;6.306;2023-03-01T06:25:52;9.90;;;6.50;;
18899;SDS011;9582;52.018;6.306;2023-03-01T06:28:19;8.90;;;6.93;;
18899;SDS011;9582;52.018;6.306;2023-03-01T06:30:45;10.17;;;7.10;;
18899;SDS011;9582;52.018;6.306;2023-03-01T06:33:12;10.47;;;7.70;;
18899;SDS011;9582;52.018;6.306;2023-03-01T06:35:38;11.27;;;6.67;;
18899;SDS011;9582;52.018;6.306;2023-03-01T06:38:05;9.13;;;7.20;;
18899;SDS011;9582;52.018;6.306;2023-03-01T06:40:31;12.93;;;7.43;;
18899;SDS011;9582;52.018;6.306;2023-03-01T06:43:01;9.57;;;6.83;;
18899;SDS011;9582;52.018;6.306;2023-03-01T06:45:28;9.90;;;7.43;;
18899;SDS011;9582;52.018;6.306;2023-03-01T06:48:00;8.70;;;7.00;;
18899;SDS011;9582;52.018;6.306;2023-03-01T06:50:28;10.17;;;6.93;;
18899;SDS011;9582;52.018;6.306;2023-03-01T06:52:55;9.23;;;6.97;;
18899;SDS011;9582;52.018;6.306;2023-03-01T06:55:21;11.87;;;7.40;;
18899;SDS011;9582;52.018;6.306;2023-03-01T06:57:48;11.80;;;6.93;;
18899;SDS011;9582;52.018;6.306;2023-03-01T07:00:16;22.67;;;8.07;;
18899;SDS011;9582;52.018;6.306;2023-03-01T07:02:44;9.50;;;7.03;;
18899;SDS011;9582;52.018;6.306;2023-03-01T07:05:10;10.17;;;6.83;;
18899;SDS011;9582;52.018;6.306;2023-03-01T07:07:37;10.50;;;7.50;;
18899;SDS011;9582;52.018;6.306;2023-03-01T07:10:04;11.87;;;7.23;;
18899;SDS011;9582;52.018;6.306;2023-03-01T07:12:31;8.87;;;7.43;;
18899;SDS011;9582;52.018;6.306;2023-03-01T07:14:57;9.47;;;7.40;;
18899;SDS011;9582;52.018;6.306;2023-03-01T07:17:25;10.70;;;7.50;;
18899;SDS011;9582;52.018;6.306;2023-03-01T07:19:52;10.83;;;7.47;;
18899;SDS011;9582;52.018;6.306;2023-03-01T07:22:18;10.93;;;7.43;;
18899;SDS011;9582;52.018;6.306;2023-03-01T07:24:45;10.73;;;7.47;;
18899;SDS011;9582;52.018;6.306;2023-03-01T07:27:11;9.23;;;8.00;;
18899;SDS011;9582;52.018;6.306;2023-03-01T07:29:38;12.60;;;8.23;;
18899;SDS011;9582;52.018;6.306;2023-03-01T07:32:05;11.03;;;8.07;;
18899;SDS011;9582;52.018;6.306;2023-03-01T07:34:33;11.30;;;7.70;;
18899;SDS011;9582;52.018;6.306;2023-03-01T07:37:00;10.63;;;7.97;;
18899;SDS011;9582;52.018;6.306;2023-03-01T07:39:26;12.17;;;8.83;;
18899;SDS011;9582;52.018;6.306;2023-03-01T07:41:53;10.17;;;7.47;;
18899;SDS011;9582;52.018;6.306;2023-03-01T07:44:21;11.67;;;7.77;;
18899;SDS011;9582;52.018;6.306;2023-03-01T07:46:48;12.17;;;7.27;;
18899;SDS011;9582;52.018;6.306;2023-03-01T07:49:14;11.93;;;8.20;;
18899;SDS011;9582;52.018;6.306;2023-03-01T07:51:42;13.90;;;8.30;;
18899;SDS011;9582;52.018;6.306;2023-03-01T07:54:09;12.47;;;8.00;;
18899;SDS011;9582;52.018;6.306;2023-03-01T07:56:35;11.77;;;8.23;;
18899;SDS011;9582;52.018;6.306;2023-03-01T07:59:02;10.93;;;8.13;;
18899;SDS011;9582;52.018;6.306;2023-03-01T08:01:28;11.97;;;8.43;;
18899;SDS011;9582;52.018;6.306;2023-03-01T08:03:54;10.93;;;7.73;;
18899;SDS011;9582;52.018;6.306;2023-03-01T08:06:21;10.90;;;7.93;;
18899;SDS011;9582;52.018;6.306;2023-03-01T08:08:49;11.60;;;7.90;;
18899;SDS011;9582;52.018;6.306;2023-03-01T08:11:15;13.73;;;8.23;;
18899;SDS011;9582;52.018;6.306;2023-03-01T08:13:42;11.23;;;7.47;;
18899;SDS011;9582;52.018;6.306;2023-03-01T08:16:10;14.17;;;7.63;;
18899;SDS011;9582;52.018;6.306;2023-03-01T08:18:38;9.27;;;7.60;;
18899;SDS011;9582;52.018;6.306;2023-03-01T08:21:05;12.13;;;7.57;;
18899;SDS011;9582;52.018;6.306;2023-03-01T08:23:33;9.83;;;7.17;;
18899;SDS011;9582;52.018;6.306;2023-03-01T08:26:05;11.90;;;6.70;;
18899;SDS011;9582;52.018;6.306;2023-03-01T08:28:33;8.87;;;6.40;;
18899;SDS011;9582;52.018;6.306;2023-03-01T08:30:59;9.40;;;6.90;;
18899;SDS011;9582;52.018;6.306;2023-03-01T08:33:26;9.43;;;6.37;;
18899;SDS011;9582;52.018;6.306;2023-03-01T08:36:01;8.53;;;6.30;;
18899;SDS011;9582;52.018;6.306;2023-03-01T08:38:28;7.80;;;6.00;;
18899;SDS011;9582;52.018;6.306;2023-03-01T08:40:54;8.70;;;5.97;;
18899;SDS011;9582;52.018;6.306;2023-03-01T08:43:22;8.50;;;6.30;;
18899;SDS011;9582;52.018;6.306;2023-03-01T08:45:49;7.77;;;5.53;;
18899;SDS011;9582;52.018;6.306;2023-03-01T08:48:16;7.67;;;6.17;;
18899;SDS011;9582;52.018;6.306;2023-03-01T08:50:42;10.33;;;6.27;;
18899;SDS011;9582;52.018;6.306;2023-03-01T08:53:09;10.37;;;6.10;;
18899;SDS011;9582;52.018;6.306;2023-03-01T08:55:35;11.10;;;6.30;;
18899;SDS011;9582;52.018;6.306;2023-03-01T08:58:02;6.67;;;5.37;;
18899;SDS011;9582;52.018;6.306;2023-03-01T09:00:29;8.17;;;5.30;;
18899;SDS011;9582;52.018;6.306;2023-03-01T09:02:59;6.10;;;5.20;;
18899;SDS011;9582;52.018;6.306;2023-03-01T09:05:26;9.17;;;5.40;;
18899;SDS011;9582;52.018;6.306;2023-03-01T09:07:53;7.73;;;5.20;;
18899;SDS011;9582;52.018;6.306;2023-03-01T09:10:19;7.93;;;5.17;;
18899;SDS011;9582;52.018;6.306;2023-03-01T09:12:48;7.27;;;5.07;;
18899;SDS011;9582;52.018;6.306;2023-03-01T09:15:14;7.20;;;5.57;;
18899;SDS011;9582;52.018;6.306;2023-03-01T09:17:42;8.17;;;5.30;;
18899;SDS011;9582;52.018;6.306;2023-03-01T09:20:10;9.47;;;5.33;;
18899;SDS011;9582;52.018;6.306;2023-03-01T09:22:37;8.93;;;5.00;;
18899;SDS011;9582;52.018;6.306;2023-03-01T09:25:03;7.07;;;5.20;;
18899;SDS011;9582;52.018;6.306;2023-03-01T09:27:30;7.10;;;5.60;;
18899;SDS011;9582;52.018;6.306;2023-03-01T09:29:57;8.73;;;5.97;;
18899;SDS011;9582;52.018;6.306;2023-03-01T09:32:23;7.80;;;5.67;;
18899;SDS011;9582;52.018;6.306;2023-03-01T09:38:39;8.20;;;5.73;;
18899;SDS011;9582;52.018;6.306;2023-03-01T09:41:09;6.27;;;5.40;;
18899;SDS011;9582;52.018;6.306;2023-03-01T09:43:41;8.30;;;4.80;;
18899;SDS011;9582;52.018;6.306;2023-03-01T09:46:12;7.33;;;4.83;;
18899;SDS011;9582;52.018;6.306;2023-03-01T09:48:42;7.70;;;5.00;;
18899;SDS011;9582;52.018;6.306;2023-03-01T09:51:12;5.47;;;4.50;;
18899;SDS011;9582;52.018;6.306;2023-03-01T09:53:46;5.83;;;4.50;;
18899;SDS011;9582;52.018;6.306;2023-03-01T09:56:14;5.97;;;4.63;;
18899;SDS011;9582;52.018;6.306;2023-03-01T09:58:47;5.33;;;4.50;;
18899;SDS011;9582;52.018;6.306;2023-03-01T10:01:25;7.03;;;4.57;;
18899;SDS011;9582;52.018;6.306;2023-03-01T10:07:05;7.03;;;4.53;;
18899;SDS011;9582;52.018;6.306;2023-03-01T10:09:43;5.67;;;4.53;;
18899;SDS011;9582;52.018;6.306;2023-03-01T10:12:12;7.43;;;4.47;;
18899;SDS011;9582;52.018;6.306;2023-03-01T10:14:43;6.47;;;4.73;;
18899;SDS011;9582;52.018;6.306;2023-03-01T10:17:19;7.73;;;4.90;;
18899;SDS011;9582;52.018;6.306;2023-03-01T10:19:53;6.00;;;4.50;;
18899;SDS011;9582;52.018;6.306;2023-03-01T10:22:22;6.20;;;4.30;;
18899;SDS011;9582;52.018;6.306;2023-03-01T10:24:54;5.83;;;3.27;;
18899;SDS011;9582;52.018;6.306;2023-03-01T10:27:24;3.97;;;3.50;;
18899;SDS011;9582;52.018;6.306;2023-03-01T10:29:54;5.40;;;4.03;;
18899;SDS011;9582;52.018;6.306;2023-03-01T10:32:28;6.00;;;4.10;;
18899;SDS011;9582;52.018;6.306;2023-03-01T10:34:55;5.07;;;3.77;;
18899;SDS011;9582;52.018;6.306;2023-03-01T10:37:22;5.77;;;4.40;;
18899;SDS011;9582;52.018;6.306;2023-03-01T10:39:55;4.47;;;3.90;;
18899;SDS011;9582;52.018;6.306;2023-03-01T10:42:25;5.27;;;3.93;;
18899;SDS011;9582;52.018;6.306;2023-03-01T10:44:53;5.13;;;3.53;;
18899;SDS011;9582;52.018;6.306;2023-03-01T10:47:22;6.00;;;4.23;;
18899;SDS011;9582;52.018;6.306;2023-03-01T10:49:53;4.47;;;3.93;;
18899;SDS011;9582;52.018;6.306;2023-03-01T10:52:26;4.50;;;3.80;;
18899;SDS011;9582;52.018;6.306;2023-03-01T10:54:56;5.07;;;4.03;;
18899;SDS011;9582;52.018;6.306;2023-03-01T10:57:28;4.40;;;3.60;;
18899;SDS011;9582;52.018;6.306;2023-03-01T11:00:10;5.53;;;4.03;;
18899;SDS011;9582;52.018;6.306;2023-03-01T11:02:51;4.63;;;3.47;;
18899;SDS011;9582;52.018;6.306;2023-03-01T11:05:28;6.80;;;4.53;;
18899;SDS011;9582;52.018;6.306;2023-03-01T11:08:06;6.27;;;3.90;;
18899;SDS011;9582;52.018;6.306;2023-03-01T11:10:36;6.27;;;3.23;;
18899;SDS011;9582;52.018;6.306;2023-03-01T11:13:07;6.47;;;3.50;;
18899;SDS011;9582;52.018;6.306;2023-03-01T11:15:34;5.70;;;4.20;;
18899;SDS011;9582;52.018;6.306;2023-03-01T11:18:01;5.77;;;4.10;;
18899;SDS011;9582;52.018;6.306;2023-03-01T11:20:29;6.33;;;3.90;;
18899;SDS011;9582;52.018;6.306;2023-03-01T11:22:59;5.27;;;4.00;;
18899;SDS011;9582;52.018;6.306;2023-03-01T11:25:29;7.43;;;3.97;;
18899;SDS011;9582;52.018;6.306;2023-03-01T11:28:01;5.20;;;4.27;;
18899;SDS011;9582;52.018;6.306;2023-03-01T11:30:31;5.53;;;4.47;;
18899;SDS011;9582;52.018;6.306;2023-03-01T11:33:05;5.60;;;4.40;;
18899;SDS011;9582;52.018;6.306;2023-03-01T11:35:41;4.10;;;3.10;;
18899;SDS011;9582;52.018;6.306;2023-03-01T11:38:15;4.37;;;3.23;;
18899;SDS011;9582;52.018;6.306;2023-03-01T11:40:46;6.63;;;4.30;;
18899;SDS011;9582;52.018;6.306;2023-03-01T11:43:19;5.07;;;4.00;;
18899;SDS011;9582;52.018;6.306;2023-03-01T11:48:57;6.30;;;4.57;;
18899;SDS011;9582;52.018;6.306;2023-03-01T11:51:38;6.47;;;4.40;;
18899;SDS011;9582;52.018;6.306;2023-03-01T11:54:17;5.77;;;4.00;;
18899;SDS011;9582;52.018;6.306;2023-03-01T11:56:54;6.43;;;4.47;;
18899;SDS011;9582;52.018;6.306;2023-03-01T12:05:16;5.30;;;4.43;;
18899;SDS011;9582;52.018;6.306;2023-03-01T12:07:52;5.70;;;4.63;;
18899;SDS011;9582;52.018;6.306;2023-03-01T12:10:25;5.13;;;3.97;;
18899;SDS011;9582;52.018;6.306;2023-03-01T12:12:58;6.30;;;4.37;;
18899;SDS011;9582;52.018;6.306;2023-03-01T12:15:47;5.43;;;4.20;;
18899;SDS011;9582;52.018;6.306;2023-03-01T12:18:41;4.77;;;3.80;;
18899;SDS011;9582;52.018;6.306;2023-03-01T12:21:23;5.93;;;4.10;;
18899;SDS011;9582;52.018;6.306;2023-03-01T12:24:01;4.70;;;3.70;;
18899;SDS011;9582;52.018;6.306;2023-03-01T12:26:42;6.17;;;4.43;;
18899;SDS011;9582;52.018;6.306;2023-03-01T12:29:23;7.10;;;4.50;;
18899;SDS011;9582;52.018;6.306;2023-03-01T12:32:00;6.07;;;4.27;;
18899;SDS011;9582;52.018;6.306;2023-03-01T12:34:51;6.57;;;5.10;;
18899;SDS011;9582;52.018;6.306;2023-03-01T12:37:32;5.67;;;4.30;;
18899;SDS011;9582;52.018;6.306;2023-03-01T12:43:03;5.20;;;4.17;;
18899;SDS011;9582;52.018;6.306;2023-03-01T12:45:43;5.60;;;4.40;;
18899;SDS011;9582;52.018;6.306;2023-03-01T12:48:21;7.10;;;5.00;;
18899;SDS011;9582;52.018;6.306;2023-03-01T12:50:57;5.17;;;4.10;;
18899;SDS011;9582;52.018;6.306;2023-03-01T12:53:28;4.93;;;4.10;;
18899;SDS011;9582;52.018;6.306;2023-03-01T12:55:58;6.57;;;4.50;;
18899;SDS011;9582;52.018;6.306;2023-03-01T12:58:28;6.13;;;4.27;;
18899;SDS011;9582;52.018;6.306;2023-03-01T13:01:01;5.50;;;4.10;;
18899;SDS011;9582;52.018;6.306;2023-03-01T13:03:42;5.50;;;4.60;;
18899;SDS011;9582;52.018;6.306;2023-03-01T13:06:23;5.83;;;4.40;;
18899;SDS011;9582;52.018;6.306;2023-03-01T13:09:04;5.27;;;4.10;;
18899;SDS011;9582;52.018;6.306;2023-03-01T13:11:40;5.20;;;4.10;;
18899;SDS011;9582;52.018;6.306;2023-03-01T13:17:03;5.37;;;3.33;;
18899;SDS011;9582;52.018;6.306;2023-03-01T13:19:31;5.83;;;4.10;;
18899;SDS011;9582;52.018;6.306;2023-03-01T13:22:00;5.77;;;4.30;;
18899;SDS011;9582;52.018;6.306;2023-03-01T13:25:01;6.10;;;3.40;;
18899;SDS011;9582;52.018;6.306;2023-03-01T13:27:37;6.63;;;4.10;;
18899;SDS011;9582;52.018;6.306;2023-03-01T13:30:12;6.10;;;4.43;;
18899;SDS011;9582;52.018;6.306;2023-03-01T13:36:07;6.47;;;4.40;;
18899;SDS011;9582;52.018;6.306;2023-03-01T13:38:36;6.00;;;5.10;;
18899;SDS011;9582;52.018;6.306;2023-03-01T13:41:05;5.03;;;4.53;;
18899;SDS011;9582;52.018;6.306;2023-03-01T13:43:32;5.93;;;4.37;;
18899;SDS011;9582;52.018;6.306;2023-03-01T13:46:01;6.30;;;4.53;;
18899;SDS011;9582;52.018;6.306;2023-03-01T13:48:33;5.63;;;4.00;;
18899;SDS011;9582;52.018;6.306;2023-03-01T13:51:01;5.30;;;4.53;;
18899;SDS011;9582;52.018;6.306;2023-03-01T13:53:33;4.77;;;4.00;;
18899;SDS011;9582;52.018;6.306;2023-03-01T13:56:03;6.37;;;4.17;;
18899;SDS011;9582;52.018;6.306;2023-03-01T13:58:43;5.63;;;4.50;;
18899;SDS011;9582;52.018;6.306;2023-03-01T14:01:20;5.73;;;4.33;;
18899;SDS011;9582;52.018;6.306;2023-03-01T14:03:48;4.60;;;3.83;;
18899;SDS011;9582;52.018;6.306;2023-03-01T14:06:16;5.40;;;4.53;;
18899;SDS011;9582;52.018;6.306;2023-03-01T14:08:48;5.67;;;3.90;;
18899;SDS011;9582;52.018;6.306;2023-03-01T14:14:34;5.13;;;4.20;;
18899;SDS011;9582;52.018;6.306;2023-03-01T14:20:16;7.23;;;3.83;;
18899;SDS011;9582;52.018;6.306;2023-03-01T14:22:45;5.67;;;4.10;;
18899;SDS011;9582;52.018;6.306;2023-03-01T14:25:19;4.90;;;4.23;;
18899;SDS011;9582;52.018;6.306;2023-03-01T14:27:54;4.43;;;3.43;;
18899;SDS011;9582;52.018;6.306;2023-03-01T14:30:23;6.50;;;4.57;;
18899;SDS011;9582;52.018;6.306;2023-03-01T14:32:54;6.50;;;4.13;;
18899;SDS011;9582;52.018;6.306;2023-03-01T14:35:23;5.53;;;3.80;;
18899;SDS011;9582;52.018;6.306;2023-03-01T14:37:51;5.27;;;3.67;;
18899;SDS011;9582;52.018;6.306;2023-03-01T14:40:26;5.07;;;4.00;;
18899;SDS011;9582;52.018;6.306;2023-03-01T14:42:55;6.67;;;4.33;;
18899;SDS011;9582;52.018;6.306;2023-03-01T14:45:24;6.57;;;4.20;;
18899;SDS011;9582;52.018;6.306;2023-03-01T14:47:52;6.60;;;3.90;;
18899;SDS011;9582;52.018;6.306;2023-03-01T14:50:22;4.33;;;3.43;;
18899;SDS011;9582;52.018;6.306;2023-03-01T14:52:51;4.60;;;3.13;;
18899;SDS011;9582;52.018;6.306;2023-03-01T14:55:21;6.37;;;3.60;;
18899;SDS011;9582;52.018;6.306;2023-03-01T14:57:55;4.57;;;3.40;;
18899;SDS011;9582;52.018;6.306;2023-03-01T15:00:23;4.00;;;3.37;;
18899;SDS011;9582;52.018;6.306;2023-03-01T15:02:52;5.13;;;3.40;;
18899;SDS011;9582;52.018;6.306;2023-03-01T15:05:22;5.17;;;3.37;;
18899;SDS011;9582;52.018;6.306;2023-03-01T15:07:53;5.90;;;3.83;;
18899;SDS011;9582;52.018;6.306;2023-03-01T15:10:23;3.00;;;2.60;;
18899;SDS011;9582;52.018;6.306;2023-03-01T15:12:53;3.70;;;3.00;;
18899;SDS011;9582;52.018;6.306;2023-03-01T15:15:30;5.40;;;3.77;;
18899;SDS011;9582;52.018;6.306;2023-03-01T15:17:59;5.83;;;3.73;;
18899;SDS011;9582;52.018;6.306;2023-03-01T15:20:28;7.50;;;3.63;;
18899;SDS011;9582;52.018;6.306;2023-03-01T15:23:00;4.97;;;2.97;;
18899;SDS011;9582;52.018;6.306;2023-03-01T15:25:28;5.27;;;3.50;;
18899;SDS011;9582;52.018;6.306;2023-03-01T15:27:59;3.87;;;3.20;;
18899;SDS011;9582;52.018;6.306;2023-03-01T15:30:27;3.33;;;2.83;;
18899;SDS011;9582;52.018;6.306;2023-03-01T15:33:19;4.43;;;3.10;;
18899;SDS011;9582;52.018;6.306;2023-03-01T15:35:55;3.70;;;3.10;;
18899;SDS011;9582;52.018;6.306;2023-03-01T15:38:28;2.90;;;2.60;;
18899;SDS011;9582;52.018;6.306;2023-03-01T15:41:00;3.83;;;2.80;;
18899;SDS011;9582;52.018;6.306;2023-03-01T15:43:43;3.13;;;2.73;;